Flight Track Log - Related Links

Times and Time Zones

All times are in EDT time to prevent confusion due to time zone crossing. See the N1229M flight status page for this flight to view local times or setup timezone preferences in your user account.


Time Position Orientation Groundspeed Altitude Reporting Facility
EDT Latitude Longitude Course Direction KTS MPH feet Rate Location/Type
Sun 04:31:03 PM 33.5739 -94.7783 61° Northeast 154 177 9,500  Level Fort Worth Center
Sun 04:32:03 PM 33.5958 -94.7303 61° Northeast 154 177 9,500  Level Fort Worth Center
Sun 04:33:03 PM 33.6178 -94.6847 60° Northeast 159 183 9,500  Level Fort Worth Center
Sun 04:34:03 PM 33.6397 -94.6367 61° Northeast 159 183 9,500  Level Fort Worth Center
Sun 04:35:03 PM 33.6617 -94.5908 60° Northeast 164 189 9,500  Level Fort Worth Center
Sun 04:36:03 PM 33.6814 -94.5453 63° Northeast 164 189 9,500  Level Fort Worth Center
Sun 04:37:03 PM 33.7056 -94.5022 56° Northeast 164 189 9,500  Level Fort Worth Center
Sun 04:38:03 PM 33.7253 -94.4542 64° Northeast 159 183 9,500  Level Fort Worth Center
Sun 04:39:03 PM 33.7472 -94.4083 60° Northeast 159 183 9,500  Level Fort Worth Center
Sun 04:40:03 PM 33.7711 -94.3625 58° Northeast 159 183 9,500  Level Fort Worth Center
Sun 04:41:03 PM 33.7869 -94.3269 62° Northeast 159 183 9,500  Level Fort Worth Center
Sun 04:42:03 PM 33.8086 -94.2764 63° Northeast 159 183 9,500  Level Fort Worth Center
Sun 04:43:03 PM 33.8306 -94.2306 60° Northeast 159 183 9,500  Level Fort Worth Center
Sun 04:44:03 PM 33.8522 -94.1847 60° Northeast 159 183 9,500  Level Fort Worth Center
Sun 04:45:03 PM 33.8739 -94.1389 60° Northeast 159 183 9,500  Level Fort Worth Center
Sun 04:46:03 PM 33.8936 -94.0931 63° Northeast 159 183 9,500  Level Fort Worth Center
Sun 04:47:03 PM 33.9133 -94.0472 63° Northeast 159 183 9,500  Level Fort Worth Center
Sun 04:48:03 PM 33.9372 -94.0014 58° Northeast 159 183 9,500  Level Fort Worth Center
Sun 04:49:03 PM 33.9567 -93.9556 63° Northeast 159 183 9,500  Level Fort Worth Center
Sun 04:51:20 PM 34.0072 -93.8475 61° Northeast 156 180 9,500  Level Memphis Center
Sun 04:52:20 PM 34.0272 -93.8008 63° Northeast 156 180 9,500  Level Memphis Center
Sun 04:53:20 PM 34.0472 -93.7564 61° Northeast 156 180 9,500  Level Memphis Center
Sun 04:54:20 PM 34.0714 -93.7072 59° Northeast 156 180 9,500  Level Memphis Center
Sun 04:55:20 PM 34.0894 -93.6628 64° Northeast 156 180 9,500  Level Memphis Center
Sun 04:56:20 PM 34.1114 -93.6161 60° Northeast 156 180 9,500  Level Memphis Center
Sun 04:57:20 PM 34.1336 -93.5667 61° Northeast 156 180 9,500  Level Memphis Center
Sun 04:58:20 PM 34.1536 -93.5222 61° Northeast 156 180 9,500  Level Memphis Center
Sun 04:59:20 PM 34.1756 -93.4753 61° Northeast 156 180 9,500  Level Memphis Center
Sun 05:00:20 PM 34.1975 -93.4283 61° Northeast 156 180 9,500  Level Memphis Center
Sun 05:01:20 PM 34.2175 -93.3814 63° Northeast 156 180 9,500  Level Memphis Center
Sun 05:02:20 PM 34.2417 -93.3344 58° Northeast 156 180 9,500  Level Memphis Center
Sun 05:03:20 PM 34.2636 -93.2900 59° Northeast 156 180 9,500  Level Memphis Center
Sun 05:04:20 PM 34.2814 -93.2403 67° East 156 180 9,500  Level Memphis Center
Sun 05:05:20 PM 34.3033 -93.1908 62° Northeast 156 180 9,500  Level Memphis Center
Sun 05:06:20 PM 34.3253 -93.1411 62° Northeast 156 180 9,500  Level Memphis Center
Sun 05:07:20 PM 34.3472 -93.0917 62° Northeast 156 180 9,500 -50 Level Memphis Center
Sun 05:08:20 PM 34.3672 -93.0444 63° Northeast 156 180 9,400 -300 Descending Memphis Center
Sun 05:09:20 PM 34.3869 -92.9972 63° Northeast 156 180 8,900 -550 Descending Memphis Center
Sun 05:10:20 PM 34.4089 -92.9475 62° Northeast 150 173 8,300 -550 Descending Memphis Center
Sun 05:11:20 PM 34.4306 -92.9056 58° Northeast 150 173 7,800 -500 Descending Memphis Center
Sun 05:12:20 PM 34.4503 -92.8606 62° Northeast 150 173 7,300 -600 Descending Memphis Center
Sun 05:13:20 PM 34.4700 -92.8158 62° Northeast 150 173 6,600 -650 Descending Memphis Center
Sun 05:14:20 PM 34.4894 -92.7736 61° Northeast 150 173 6,000 -650 Descending Memphis Center
Sun 05:15:20 PM 34.5072 -92.7289 64° Northeast 150 173 5,300 -667 Descending Memphis Center
Sun 05:15:50 PM 34.5158 -92.7089 62° Northeast 149 171 5,000 -500 Descending Memphis Center
Sun 05:16:20 PM 34.5289 -92.6867 55° Northeast 144 166 4,800 -448 Descending Memphis Center
Sun 05:16:57 PM 34.5375 -92.6617 67° East 137 158 4,500 -495 Descending Memphis Center
Sun 05:17:57 PM 34.5528 -92.6242 64° Northeast 138 159 4,000 -472 Descending Memphis Center
Sun 05:19:04 PM 34.5744 -92.5767 61° Northeast 140 161 3,500 -236 Descending Memphis Center
Sun 05:20:04 PM 34.5919 -92.5394 60° Northeast 127 146 3,500 -50 Level Memphis Center
Sun 05:21:05 PM 34.6217 -92.5125 37° Northeast 131 151 3,400 -207 Descending Memphis Center
Sun 05:22:00 PM 34.6514 -92.4853 37° Northeast 145 167 3,100 -298 Descending Memphis Center
Sun 05:23:06 PM 34.6850 -92.4611 31° Northeast 142 163 2,800 -283 Descending Memphis Center
Sun 05:24:07 PM 34.7150 -92.4264 44° Northeast 139 160 2,500 -295 Descending Memphis Center
Sun 05:25:08 PM 34.7425 -92.3917 46° Northeast 141 162 2,200 -298 Descending Memphis Center
Sun 05:26:08 PM 34.7642 -92.3517 57° Northeast 140 161 1,900 -149 Descending Memphis Center
Sun 05:27:09 PM 34.7731 -92.3114 75° East 129 148 1,900 -148 Level Memphis Center
Sun 05:28:10 PM 34.7781 -92.2661 82° East 122 140 1,600 -397 Descending Memphis Center
Sun 05:29:10 PM 34.7639 -92.2381 122° Southeast 102 117 1,100 -626 Descending Memphis Center
Sun 05:30:05 PM 34.7386 -92.2400 184° South 87 100 400 Descending Memphis Center
Sun 05:32:00 PM 34.7294 -92.2248 59° Northeast  Level Estimated
Sun 06:27:40 PM 34.7069 -92.2669 239° Southwest 99 114 1,400  Level Memphis Center
Sun 06:28:47 PM 34.6897 -92.3019 239° Southwest 111 128 2,000 493 Climbing Memphis Center
Sun 06:29:54 PM 34.6725 -92.3419 242° Southwest 119 137 2,500 236 Climbing Memphis Center
Sun 06:30:54 PM 34.6594 -92.3769 246° West 128 147 2,500  Level Memphis Center
Sun 06:31:55 PM 34.6378 -92.4219 240° Southwest 147 169 2,500  Level Memphis Center
Sun 06:32:49 PM 34.6206 -92.4594 241° Southwest 147 169 2,500 261 Level Memphis Center
Sun 06:33:50 PM 34.6031 -92.5019 243° Southwest 132 152 3,000 492 Climbing Memphis Center
Sun 06:34:51 PM 34.5878 -92.5367 242° Southwest 123 142 3,500 496 Climbing Memphis Center
Sun 06:35:51 PM 34.5706 -92.5742 241° Southwest 124 143 4,000 496 Climbing Memphis Center
Sun 06:36:52 PM 34.5550 -92.6142 245° Southwest 129 148 4,500 475 Climbing Memphis Center
Sun 06:37:32 PM 34.5442 -92.6392 242° Southwest 129 148 4,800 480 Climbing Memphis Center
Sun 06:38:32 PM 34.5247 -92.6764 238° Southwest 135 155 5,300 500 Climbing Memphis Center
Sun 06:39:32 PM 34.5075 -92.7111 239° Southwest 141 162 5,800 496 Climbing Memphis Center
Sun 06:40:33 PM 34.4900 -92.7508 242° Southwest 136 157 6,300 500 Climbing Memphis Center
Sun 06:41:32 PM 34.4706 -92.7908 239° Southwest 136 157 6,800 504 Climbing Memphis Center
Sun 06:42:32 PM 34.4511 -92.8256 236° Southwest 136 157 7,300 500 Climbing Memphis Center
Sun 06:43:32 PM 34.4314 -92.8628 237° Southwest 136 157 7,800 500 Climbing Memphis Center
Sun 06:44:32 PM 34.4139 -92.9000 240° Southwest 136 157 8,300 350 Climbing Memphis Center
Sun 06:45:32 PM 34.3964 -92.9397 242° Southwest 136 157 8,500 100 Climbing Memphis Center
Sun 06:46:32 PM 34.3769 -92.9819 241° Southwest 142 163 8,500  Level Memphis Center
Sun 06:47:33 PM 34.3592 -93.0242 243° Southwest 142 163 8,500  Level Memphis Center
Sun 06:48:32 PM 34.3394 -93.0661 240° Southwest 142 163 8,500  Level Memphis Center
Sun 06:49:32 PM 34.3175 -93.1158 242° Southwest 142 163 8,500  Level Memphis Center
Sun 06:50:32 PM 34.3000 -93.1581 243° Southwest 148 170 8,500  Level Memphis Center
Sun 06:51:32 PM 34.2822 -93.2028 244° Southwest 153 176 8,500  Level Memphis Center
Sun 06:52:32 PM 34.2647 -93.2447 243° Southwest 153 176 8,500  Level Memphis Center
Sun 06:53:32 PM 34.2469 -93.2894 244° Southwest 153 176 8,500  Level Memphis Center
Sun 06:55:28 PM 34.2144 -93.3650 243° Southwest 142 163 8,500 34 Level Fort Worth Center
Sun 06:56:27 PM 34.1972 -93.4086 244° Southwest 142 163 8,600 102 Climbing Fort Worth Center

Login

Don't have an account? Register now (free) for customized features, flight alerts, and more!